Flight Track Log - Related Links

Times and Time Zones

All times are in EDT time to prevent confusion due to time zone crossing. See the SKW6377 flight status page for this flight to view local times or setup timezone preferences in your user account.

Time Position Orientation Groundspeed Altitude Reporting Facility
EDT Latitude Longitude Course Direction KTS MPH feet Rate Location/Type
Sat 01:31:38 PM 39.9167 -104.7000 346° North 188 216 7,000  Level Denver TRACON
Sat 01:32:38 PM 39.9833 -104.6833 11° North 260 299 8,700 1,929 Climbing Denver TRACON
Sat 01:33:02 PM 40.0108 -104.6811 North 272 313 9,700 2,302 Climbing Denver Center
Sat 01:34:00 PM 40.3285 -104.8206 346° North  Level FlightAware Approximate
Sat 01:34:04 PM 40.0933 -104.6983 351° North 296 341 12,000  Level Denver Center
Sat 01:35:00 PM 40.4481 -104.8604 346° North  Level FlightAware Approximate
Sat 01:35:06 PM 40.1847 -104.7181 351° North 344 396 13,100  Level Denver Center
Sat 01:36:00 PM 40.5681 -104.8980 348° North  Level FlightAware Approximate
Sat 01:36:08 PM 40.2886 -104.7419 350° North 352 405 15,200  Level Denver Center
Sat 01:37:00 PM 40.6882 -104.9349 346° North  Level FlightAware Approximate
Sat 01:37:09 PM 40.3861 -104.7631 351° North 354 407 16,900  Level Denver Center
Sat 01:38:11 PM 40.4933 -104.7894 349° North 363 418 18,100 1,210 Climbing Denver Center
Sat 01:39:13 PM 40.5983 -104.8100 352° North 383 441 19,400 1,258 Climbing Denver Center
Sat 01:40:15 PM 40.7028 -104.8372 349° North 385 443 20,700 1,258 Climbing Denver Center
Sat 01:41:17 PM 40.8189 -104.8658 349° North 382 440 22,000 1,161 Climbing Denver Center
Sat 01:42:19 PM 40.9247 -104.9181 340° North 401 461 23,100 1,073 Climbing Denver Center
Sat 01:43:20 PM 41.0253 -104.9681 339° North 404 465 24,200 927 Climbing Denver Center
Sat 01:44:22 PM 41.1458 -105.0272 340° North 413 475 25,000 726 Climbing Denver Center
Sat 01:45:24 PM 41.2514 -105.0794 340° North 421 484 25,700 968 Climbing Denver Center
Sat 01:46:26 PM 41.3750 -105.1428 339° North 425 489 27,000 919 Climbing Denver Center
Sat 01:47:28 PM 41.4797 -105.1947 340° North 421 484 27,600 484 Climbing Denver Center
Sat 01:48:30 PM 41.5858 -105.2489 339° North 425 489 28,000 194 Climbing Denver Center
Sat 01:49:32 PM 41.7083 -105.3325 333° Northwest 438 504 28,000  Level Denver Center
Sat 01:50:33 PM 41.8161 -105.4042 334° Northwest 448 516 28,000  Level Denver Center
Sat 01:51:35 PM 41.9411 -105.4872 334° Northwest 447 514 28,000  Level Denver Center
Sat 01:52:37 PM 42.0461 -105.5592 333° Northwest 443 510 28,000  Level Denver Center
Sat 01:53:39 PM 42.1681 -105.6425 333° Northwest 441 507 28,000 -774 Level Denver Center
Sat 01:54:41 PM 42.2750 -105.7147 333° Northwest 447 514 26,400 -1,694 Descending Denver Center
Sat 01:55:43 PM 42.3825 -105.7886 333° Northwest 451 519 24,500 -2,049 Descending Denver Center
Sat 01:56:44 PM 42.4986 -105.8667 334° Northwest 416 479 22,200 -2,049 Descending Denver Center
Sat 01:57:46 PM 42.5964 -105.9339 333° Northwest 410 472 20,300 -2,032 Descending Denver Center
Sat 01:58:48 PM 42.6936 -106.0275 325° Northwest 402 463 18,000 -2,032 Descending Denver Center
Sat 01:59:50 PM 42.7444 -106.1381 302° West 367 422 16,100 -2,585 Descending Denver Center
Sat 02:00:51 PM 42.7958 -106.2442 303° West 357 411 12,700 -2,634 Descending Denver Center
Sat 02:01:53 PM 42.7983 -106.3728 272° West 312 359 10,700 -1,839 Descending Denver Center
Sat 02:02:55 PM 42.7925 -106.4603 265° West 267 307 8,900 -1,742 Descending Denver Center

Login

Don't have an account? Register now (free) for customized features, flight alerts, and more!